Evans City, Pennsylvania
Current Conditions -  °F | °C
As of 7:35 AM on Monday 22 Dec 2014 (Local Time) from KBTP Reporting Station
Clear Clear  
Wind Chill: 15°   Ceiling: Unl
Heat Index: 23°   Visibility: 10mi
Dew Point: 19°   Wind: 7mph
Humidity: 86%   Direction: 80°E
Pressure: 30.14"   Gusts: NA
Location:  40.77°N, 80.06°W
Report Text: KBTP 221235Z AUTO 08006KT 10SM CLR M05/M07 A3014 RMK AO1
Loading
Personal Weather Stations






























Interactive Weather Map New forecast layout! Learn more

10-Day Weather Forecast

Advertisements
Track Severe Weather on mobile